createdAt,value
2022-08-25T00:01:24.713Z,21.85
2022-08-25T00:03:55.157Z,21.98
2022-08-25T00:06:23.717Z,22.02
2022-08-25T00:08:50.966Z,22.01
2022-08-25T00:11:21.250Z,22.08
2022-08-25T00:13:54.365Z,21.64
2022-08-25T00:16:23.251Z,21.85
2022-08-25T00:18:53.033Z,21.93
2022-08-25T00:21:20.160Z,21.67
2022-08-25T00:23:46.723Z,21.93
2022-08-25T00:26:14.427Z,21.85
2022-08-25T00:28:41.495Z,21.69
2022-08-25T00:31:15.263Z,21.60
2022-08-25T00:33:43.885Z,21.53
2022-08-25T00:36:12.503Z,21.66
2022-08-25T00:38:43.953Z,21.79
2022-08-25T00:41:12.920Z,21.83
2022-08-25T00:43:42.489Z,21.74
2022-08-25T00:46:10.119Z,21.75
2022-08-25T00:48:39.466Z,21.42
2022-08-25T00:51:08.225Z,21.65
2022-08-25T00:53:34.741Z,21.73
2022-08-25T00:56:01.858Z,21.62
2022-08-25T00:58:31.201Z,21.66
2022-08-25T01:00:58.490Z,21.65
2022-08-25T01:03:33.004Z,21.57
2022-08-25T01:06:02.090Z,21.43
2022-08-25T01:08:29.866Z,21.54
2022-08-25T01:11:02.072Z,21.35
2022-08-25T01:13:42.087Z,21.55
2022-08-25T01:16:09.030Z,21.47
2022-08-25T01:18:51.896Z,21.45
2022-08-25T01:21:20.786Z,21.49
2022-08-25T01:23:48.617Z,21.43
2022-08-25T01:26:17.284Z,21.36
2022-08-25T01:29:04.530Z,21.33
2022-08-25T01:31:31.785Z,21.27
2022-08-25T01:33:59.010Z,21.32
2022-08-25T01:36:27.907Z,21.39
2022-08-25T01:38:54.990Z,21.21
2022-08-25T01:41:27.635Z,21.22
2022-08-25T01:43:54.117Z,21.13
2022-08-25T01:46:20.780Z,21.08
2022-08-25T01:48:47.924Z,20.81
2022-08-25T01:51:20.621Z,21.08
2022-08-25T01:53:47.281Z,21.15
2022-08-25T01:56:15.797Z,21.02
2022-08-25T01:58:46.130Z,21.31
2022-08-25T02:01:16.112Z,21.25
2022-08-25T02:03:44.912Z,20.87
2022-08-25T02:06:16.645Z,20.95
2022-08-25T02:08:44.177Z,20.80
2022-08-25T02:11:12.531Z,21.06
2022-08-25T02:13:40.554Z,21.12
2022-08-25T02:16:07.844Z,21.14
2022-08-25T02:18:34.396Z,21.08
2022-08-25T02:21:03.145Z,21.07
2022-08-25T02:23:30.231Z,21.03
2022-08-25T02:25:57.347Z,21.05
2022-08-25T02:28:24.399Z,21.05
2022-08-25T02:30:52.930Z,20.83
2022-08-25T02:33:25.248Z,20.93
2022-08-25T02:35:51.946Z,20.67
2022-08-25T02:38:18.438Z,21.05
2022-08-25T02:40:44.921Z,20.96
2022-08-25T02:43:11.477Z,20.96
2022-08-25T02:45:37.972Z,20.94
2022-08-25T02:48:04.768Z,20.72
2022-08-25T02:50:31.436Z,20.53
2022-08-25T02:52:57.938Z,20.78
2022-08-25T02:55:24.397Z,20.65
2022-08-25T02:57:50.954Z,20.98
2022-08-25T03:00:18.297Z,20.82
2022-08-25T03:02:45.353Z,20.86
2022-08-25T03:05:14.189Z,20.81
2022-08-25T03:07:40.839Z,20.85
2022-08-25T03:10:12.521Z,20.61
2022-08-25T03:12:41.665Z,20.49
2022-08-25T03:15:13.389Z,20.33
2022-08-25T03:17:40.275Z,20.47
2022-08-25T03:20:07.953Z,20.62
2022-08-25T03:22:34.479Z,20.53
2022-08-25T03:25:24.036Z,20.49
2022-08-25T03:27:51.945Z,20.50
2022-08-25T03:30:19.147Z,20.53
2022-08-25T03:32:45.641Z,20.68
2022-08-25T03:35:12.623Z,20.51
2022-08-25T03:37:39.839Z,20.47
2022-08-25T03:40:13.624Z,20.46
2022-08-25T03:42:45.317Z,20.46
2022-08-25T03:45:13.953Z,20.72
2022-08-25T03:47:40.854Z,20.59
2022-08-25T03:50:09.131Z,20.45
2022-08-25T03:52:40.147Z,20.47
2022-08-25T03:55:11.025Z,20.69
2022-08-25T03:57:38.221Z,20.56
2022-08-25T04:00:09.825Z,20.42
2022-08-25T04:02:36.392Z,20.54
2022-08-25T04:05:03.591Z,20.57
2022-08-25T04:07:30.441Z,20.40
2022-08-25T04:09:56.908Z,20.43
2022-08-25T04:12:23.789Z,20.60
2022-08-25T04:14:50.572Z,20.56
2022-08-25T04:17:17.676Z,20.58
2022-08-25T04:19:44.245Z,20.76
2022-08-25T04:22:11.162Z,20.60
2022-08-25T04:24:39.798Z,20.17
2022-08-25T04:27:06.284Z,20.30
2022-08-25T04:29:33.490Z,20.43
2022-08-25T04:32:00.062Z,20.77
2022-08-25T04:34:29.918Z,20.38
2022-08-25T04:37:00.426Z,20.39
2022-08-25T04:39:26.890Z,20.58
2022-08-25T04:41:53.569Z,20.43
2022-08-25T04:44:20.034Z,20.44
2022-08-25T04:46:46.569Z,20.75
2022-08-25T04:49:13.057Z,20.71
2022-08-25T04:51:41.716Z,20.84
2022-08-25T04:54:12.826Z,20.94
2022-08-25T04:56:40.798Z,20.89
2022-08-25T04:59:12.310Z,20.83
2022-08-25T05:01:39.563Z,20.95
2022-08-25T05:04:07.696Z,20.85
2022-08-25T05:06:34.370Z,20.64
2022-08-25T05:09:03.672Z,20.68
2022-08-25T05:11:32.262Z,20.40
2022-08-25T05:14:01.482Z,20.65
2022-08-25T05:16:28.242Z,20.51
2022-08-25T05:18:55.522Z,20.76
2022-08-25T05:21:25.033Z,20.51
2022-08-25T05:23:56.688Z,20.73
2022-08-25T05:26:24.106Z,20.41
2022-08-25T05:28:53.446Z,20.73
2022-08-25T05:31:22.162Z,20.84
2022-08-25T05:33:48.660Z,20.60
2022-08-25T05:36:16.184Z,21.00
2022-08-25T05:38:42.878Z,20.87
2022-08-25T05:41:12.043Z,21.00
2022-08-25T05:43:40.154Z,21.33
2022-08-25T05:46:07.510Z,21.55
2022-08-25T05:48:34.586Z,21.50
2022-08-25T05:51:02.986Z,21.10
2022-08-25T05:53:31.075Z,20.98
2022-08-25T05:56:01.428Z,21.08
2022-08-25T05:58:29.110Z,21.11
2022-08-25T06:00:56.672Z,21.50
2022-08-25T06:03:23.209Z,21.33
2022-08-25T06:05:50.186Z,21.36
2022-08-25T06:08:17.018Z,21.47
2022-08-25T06:10:43.516Z,21.57
2022-08-25T06:13:10.042Z,21.43
2022-08-25T06:15:36.674Z,21.80
2022-08-25T06:18:03.567Z,21.90
2022-08-25T06:20:31.344Z,22.02
2022-08-25T06:22:58.904Z,21.99
2022-08-25T06:25:26.824Z,21.96
2022-08-25T06:27:54.218Z,22.12
2022-08-25T06:30:24.531Z,21.96
2022-08-25T06:32:55.781Z,21.71
2022-08-25T06:35:22.762Z,21.91
2022-08-25T06:37:49.337Z,22.33
2022-08-25T06:40:16.557Z,22.42
2022-08-25T06:42:43.514Z,21.97
2022-08-25T06:45:11.253Z,22.16
2022-08-25T06:47:37.759Z,21.82
2022-08-25T06:50:05.070Z,22.23
2022-08-25T06:52:31.671Z,22.44
2022-08-25T06:54:58.170Z,22.11
2022-08-25T06:57:25.054Z,21.97
2022-08-25T06:59:53.392Z,22.34
2022-08-25T07:02:22.094Z,22.43
2022-08-25T07:04:49.530Z,22.24
2022-08-25T07:07:16.025Z,22.98
2022-08-25T07:09:43.054Z,22.73
2022-08-25T07:12:09.586Z,22.59
2022-08-25T07:14:36.877Z,22.46
2022-08-25T07:17:11.937Z,22.79
2022-08-25T07:19:39.086Z,23.13
2022-08-25T07:22:07.570Z,24.05
2022-08-25T07:24:35.989Z,23.78
2022-08-25T07:27:02.630Z,24.08
2022-08-25T07:29:32.029Z,23.74
2022-08-25T07:32:01.484Z,24.46
2022-08-25T07:34:52.214Z,24.26
2022-08-25T07:37:38.321Z,24.41
2022-08-25T07:40:08.078Z,24.17
2022-08-25T07:42:34.897Z,24.34
2022-08-25T07:45:01.874Z,24.22
2022-08-25T07:47:28.734Z,24.80
2022-08-25T07:49:55.221Z,24.28
2022-08-25T07:52:21.767Z,23.89
2022-08-25T07:54:48.244Z,23.23
2022-08-25T07:57:14.915Z,24.48
2022-08-25T07:59:42.336Z,25.00
2022-08-25T08:02:17.697Z,26.12
2022-08-25T08:04:50.742Z,25.04
2022-08-25T08:07:43.839Z,24.70
2022-08-25T08:10:42.329Z,23.99
2022-08-25T08:12:59.245Z,24.25
2022-08-25T08:15:25.902Z,24.27
2022-08-25T08:17:56.202Z,23.69
2022-08-25T08:20:24.422Z,23.38
2022-08-25T08:22:50.934Z,24.25
2022-08-25T08:25:18.871Z,25.76
2022-08-25T08:27:48.903Z,25.72
2022-08-25T08:30:16.747Z,25.28
2022-08-25T08:33:08.162Z,26.57
2022-08-25T08:35:30.074Z,26.40
2022-08-25T08:37:56.592Z,25.74
2022-08-25T08:40:23.106Z,26.08
2022-08-25T08:43:07.024Z,26.57
2022-08-25T08:45:50.708Z,27.18
2022-08-25T08:48:33.006Z,26.54
2022-08-25T08:51:11.363Z,25.90
2022-08-25T08:53:59.773Z,25.56
2022-08-25T08:56:45.412Z,26.63
2022-08-25T08:59:21.759Z,26.72
2022-08-25T09:01:54.339Z,26.44
2022-08-25T09:04:38.286Z,25.68
2022-08-25T09:07:11.753Z,25.45
2022-08-25T09:09:41.994Z,25.86
2022-08-25T09:12:11.518Z,26.12
2022-08-25T09:15:12.927Z,26.58
2022-08-25T09:17:57.857Z,27.88
2022-08-25T09:20:30.248Z,28.03
2022-08-25T09:22:56.859Z,28.03
2022-08-25T09:25:53.216Z,27.80
2022-08-25T09:28:41.095Z,28.21
2022-08-25T09:31:20.033Z,28.01
2022-08-25T09:33:46.770Z,27.83
2022-08-25T09:36:13.811Z,28.95
2022-08-25T09:38:41.288Z,28.52
2022-08-25T09:41:08.325Z,27.83
2022-08-25T09:43:36.818Z,27.38
2022-08-25T09:46:03.522Z,27.05
2022-08-25T09:48:42.382Z,26.89
2022-08-25T09:51:21.485Z,27.90
2022-08-25T09:53:55.824Z,29.01
2022-08-25T09:56:24.748Z,29.79
2022-08-25T09:58:52.688Z,30.29
2022-08-25T10:01:22.566Z,30.49
2022-08-25T10:04:00.026Z,30.10
2022-08-25T10:06:30.206Z,30.01
2022-08-25T10:09:03.973Z,29.02
2022-08-25T10:11:37.982Z,28.41
2022-08-25T10:14:14.281Z,29.23
2022-08-25T10:16:40.819Z,28.34
2022-08-25T10:19:24.173Z,29.39
2022-08-25T10:22:05.833Z,28.60
2022-08-25T10:24:32.822Z,28.40
2022-08-25T10:27:12.250Z,29.32
2022-08-25T10:30:00.678Z,29.82
2022-08-25T10:32:46.201Z,30.13
2022-08-25T10:35:14.749Z,30.22
2022-08-25T10:38:01.604Z,30.23
2022-08-25T10:40:42.230Z,29.31
2022-08-25T10:43:27.583Z,30.25
2022-08-25T10:46:03.936Z,29.92
2022-08-25T10:48:40.845Z,28.93
2022-08-25T10:51:14.598Z,30.11
2022-08-25T10:53:58.116Z,30.11
2022-08-25T10:56:41.839Z,30.35
2022-08-25T10:59:30.011Z,28.10
2022-08-25T11:02:22.749Z,28.45
2022-08-25T11:04:55.608Z,29.33
2022-08-25T11:07:49.874Z,29.01
2022-08-25T11:10:20.800Z,29.70
2022-08-25T11:12:53.760Z,30.47
2022-08-25T11:15:26.008Z,30.96
2022-08-25T11:17:59.142Z,31.20
2022-08-25T11:20:38.121Z,29.38
2022-08-25T11:23:12.060Z,30.56
2022-08-25T11:25:43.007Z,30.15
2022-08-25T11:28:49.598Z,31.33
2022-08-25T11:31:17.360Z,31.32
2022-08-25T11:33:44.215Z,31.07
2022-08-25T11:36:30.063Z,30.63
2022-08-25T11:38:59.737Z,30.99
2022-08-25T11:41:53.544Z,32.05
2022-08-25T11:44:53.385Z,29.54
2022-08-25T11:47:42.090Z,28.61
2022-08-25T11:50:30.172Z,30.71
2022-08-25T11:53:15.647Z,29.82
2022-08-25T11:55:48.740Z,30.27
2022-08-25T11:58:40.886Z,30.63
2022-08-25T12:01:35.684Z,29.10
2022-08-25T12:04:33.951Z,30.16
2022-08-25T12:07:07.379Z,31.34
2022-08-25T12:09:35.295Z,30.67
2022-08-25T12:12:28.631Z,30.77
2022-08-25T12:14:55.197Z,30.38
2022-08-25T12:17:27.525Z,29.89
2022-08-25T12:19:57.051Z,30.20
2022-08-25T12:22:23.468Z,30.91
2022-08-25T12:24:56.100Z,31.29
2022-08-25T12:27:27.228Z,31.17
2022-08-25T12:30:07.231Z,31.50
2022-08-25T12:33:02.780Z,31.81
2022-08-25T12:35:29.990Z,31.84
2022-08-25T12:38:01.456Z,31.27
2022-08-25T12:40:59.346Z,31.52
2022-08-25T12:43:33.505Z,31.51
2022-08-25T12:46:38.284Z,30.21
2022-08-25T12:49:32.397Z,30.21
2022-08-25T12:52:05.522Z,30.54
2022-08-25T12:55:13.987Z,30.65
2022-08-25T12:57:46.302Z,32.21
2022-08-25T13:03:14.148Z,30.70
2022-08-25T13:05:56.042Z,30.38
2022-08-25T13:08:33.748Z,29.96
2022-08-25T13:11:04.773Z,29.89
2022-08-25T13:13:53.519Z,29.89
2022-08-25T13:16:29.884Z,30.48
2022-08-25T13:18:59.409Z,31.66
2022-08-25T13:21:42.178Z,30.64
2022-08-25T13:24:28.415Z,30.00
2022-08-25T13:26:57.434Z,31.20
2022-08-25T13:29:26.602Z,31.76
2022-08-25T13:32:12.643Z,32.44
2022-08-25T13:34:42.847Z,30.48
2022-08-25T13:37:30.204Z,30.90
2022-08-25T13:40:27.005Z,31.39
2022-08-25T13:42:58.534Z,32.18
2022-08-25T13:45:28.283Z,31.98
2022-08-25T13:47:55.963Z,30.62
2022-08-25T13:50:26.336Z,30.23
2022-08-25T13:52:59.250Z,30.42
2022-08-25T13:55:28.614Z,29.52
2022-08-25T13:57:57.905Z,29.96
2022-08-25T14:00:43.141Z,30.12
2022-08-25T14:03:37.344Z,30.47
2022-08-25T14:06:14.956Z,30.65
2022-08-25T14:08:47.428Z,31.06
2022-08-25T14:11:30.710Z,31.14
2022-08-25T14:14:03.003Z,30.70
2022-08-25T14:16:34.838Z,31.05
2022-08-25T14:19:03.489Z,31.17
2022-08-25T14:21:33.151Z,31.49
2022-08-25T14:24:01.182Z,31.77
2022-08-25T14:26:27.693Z,31.56
2022-08-25T14:28:54.286Z,30.63
2022-08-25T14:31:30.521Z,29.82
2022-08-25T14:34:08.170Z,30.29
2022-08-25T14:36:39.013Z,30.48
2022-08-25T14:39:08.673Z,31.04
2022-08-25T14:41:37.836Z,31.04
2022-08-25T14:44:05.246Z,30.66
2022-08-25T14:46:34.350Z,29.66
2022-08-25T14:49:03.715Z,30.08
2022-08-25T14:51:32.582Z,29.87
2022-08-25T14:54:05.069Z,29.86
2022-08-25T14:56:33.008Z,29.76
2022-08-25T14:59:00.829Z,30.20
2022-08-25T15:01:29.038Z,30.23
2022-08-25T15:04:02.369Z,29.93
2022-08-25T15:06:29.150Z,30.24
2022-08-25T15:09:08.294Z,30.55
2022-08-25T15:11:35.865Z,29.73
2022-08-25T15:14:05.484Z,29.52
2022-08-25T15:16:35.121Z,28.72
2022-08-25T15:19:06.819Z,29.03
2022-08-25T15:21:34.180Z,29.61
2022-08-25T15:24:02.285Z,29.70
2022-08-25T15:26:28.817Z,29.60
2022-08-25T15:28:55.368Z,29.30
2022-08-25T15:31:22.591Z,28.57
2022-08-25T15:33:49.437Z,28.73
2022-08-25T15:36:20.676Z,28.99
2022-08-25T15:38:47.470Z,28.96
2022-08-25T15:41:14.054Z,28.90
2022-08-25T15:43:41.199Z,29.06
2022-08-25T15:46:07.736Z,28.90
2022-08-25T15:48:35.553Z,28.61
2022-08-25T15:51:02.121Z,28.43
2022-08-25T15:53:31.070Z,28.62
2022-08-25T15:55:57.602Z,28.02
2022-08-25T15:58:27.511Z,28.61
2022-08-25T16:00:56.189Z,28.89
2022-08-25T16:03:23.069Z,28.71
2022-08-25T16:05:50.421Z,28.52
2022-08-25T16:08:19.721Z,28.63
2022-08-25T16:10:46.519Z,28.30
2022-08-25T16:13:13.096Z,28.01
2022-08-25T16:15:40.577Z,27.88
2022-08-25T16:18:07.094Z,28.30
2022-08-25T16:20:35.490Z,28.02
2022-08-25T16:23:03.931Z,27.87
2022-08-25T16:25:30.810Z,28.39
2022-08-25T16:27:57.309Z,28.13
2022-08-25T16:30:23.917Z,27.74
2022-08-25T16:32:50.438Z,28.08
2022-08-25T16:35:16.995Z,28.42
2022-08-25T16:37:44.221Z,28.22
2022-08-25T16:40:14.903Z,28.12
2022-08-25T16:42:41.859Z,27.54
2022-08-25T16:45:08.745Z,27.27
2022-08-25T16:47:38.039Z,27.65
2022-08-25T16:50:08.912Z,27.47
2022-08-25T16:52:55.924Z,27.75
2022-08-25T16:55:25.219Z,27.40
2022-08-25T16:57:54.188Z,27.86
2022-08-25T17:00:25.073Z,28.01
2022-08-25T17:02:58.362Z,27.72
2022-08-25T17:05:26.452Z,27.56
2022-08-25T17:08:12.526Z,27.50
2022-08-25T17:10:42.676Z,27.55
2022-08-25T17:13:10.232Z,27.30
2022-08-25T17:15:45.044Z,27.46
2022-08-25T17:18:12.833Z,27.33
2022-08-25T17:20:42.044Z,27.27
2022-08-25T17:23:11.977Z,27.34
2022-08-25T17:25:41.320Z,27.29
2022-08-25T17:28:09.687Z,27.15
2022-08-25T17:30:39.801Z,27.27
2022-08-25T17:33:06.622Z,27.35
2022-08-25T17:35:39.064Z,27.34
2022-08-25T17:38:06.280Z,27.27
2022-08-25T17:40:33.578Z,27.08
2022-08-25T17:43:01.658Z,26.77
2022-08-25T17:45:28.291Z,26.87
2022-08-25T17:47:55.007Z,26.90
2022-08-25T17:50:22.084Z,26.86
2022-08-25T17:52:49.247Z,26.58
2022-08-25T17:55:15.877Z,26.77
2022-08-25T17:57:43.010Z,26.41
2022-08-25T18:00:12.145Z,26.25
2022-08-25T18:02:39.932Z,26.17
2022-08-25T18:05:06.827Z,25.98
2022-08-25T18:07:33.382Z,26.04
2022-08-25T18:10:00.608Z,26.02
2022-08-25T18:12:27.834Z,26.13
2022-08-25T18:14:54.428Z,26.05
2022-08-25T18:17:21.959Z,26.22
2022-08-25T18:19:49.536Z,25.61
2022-08-25T18:22:16.728Z,25.89
2022-08-25T18:24:44.425Z,25.54
2022-08-25T18:27:13.101Z,25.95
2022-08-25T18:29:41.305Z,25.50
2022-08-25T18:32:08.495Z,25.70
2022-08-25T18:34:39.426Z,25.07
2022-08-25T18:37:25.554Z,25.54
2022-08-25T18:40:18.648Z,25.43
2022-08-25T18:42:45.448Z,25.14
2022-08-25T18:45:12.632Z,25.32
2022-08-25T18:47:39.259Z,25.53
2022-08-25T18:50:06.687Z,25.13
2022-08-25T18:52:33.382Z,24.78
2022-08-25T18:55:01.247Z,24.90
2022-08-25T18:57:28.489Z,24.79
2022-08-25T18:59:57.547Z,25.00
2022-08-25T19:02:25.283Z,24.94
2022-08-25T19:04:52.709Z,25.06
2022-08-25T19:07:19.740Z,25.03
2022-08-25T19:09:46.405Z,24.68
2022-08-25T19:12:22.711Z,24.82
2022-08-25T19:14:50.099Z,24.18
2022-08-25T19:17:17.138Z,24.50
2022-08-25T19:19:43.796Z,24.32
2022-08-25T19:22:31.839Z,24.04
2022-08-25T19:24:58.137Z,24.34
2022-08-25T19:27:25.010Z,24.06
2022-08-25T19:29:52.033Z,24.13
2022-08-25T19:32:18.915Z,23.95
2022-08-25T19:34:47.365Z,24.14
2022-08-25T19:37:18.160Z,24.03
2022-08-25T19:39:52.916Z,24.18
2022-08-25T19:42:37.110Z,23.96
2022-08-25T19:45:07.729Z,24.05
2022-08-25T19:47:34.416Z,24.28
2022-08-25T19:50:00.956Z,24.32
2022-08-25T19:52:27.801Z,24.27
2022-08-25T19:54:55.632Z,24.09
2022-08-25T19:57:28.403Z,24.37
2022-08-25T20:00:13.893Z,24.04
2022-08-25T20:02:40.576Z,24.06
2022-08-25T20:05:08.352Z,24.09
2022-08-25T20:07:35.588Z,24.21
2022-08-25T20:10:04.237Z,23.84
2022-08-25T20:12:30.943Z,24.06
2022-08-25T20:14:58.083Z,23.99
2022-08-25T20:17:26.242Z,23.62
2022-08-25T20:19:57.911Z,23.60
2022-08-25T20:22:30.918Z,23.38
2022-08-25T20:25:03.265Z,23.64
2022-08-25T20:27:37.429Z,23.44
2022-08-25T20:30:08.582Z,23.47
2022-08-25T20:32:35.723Z,23.58
2022-08-25T20:35:05.074Z,23.44
2022-08-25T20:37:41.996Z,23.31
2022-08-25T20:40:09.916Z,23.79
2022-08-25T20:42:38.149Z,23.45
2022-08-25T20:45:08.154Z,23.76
2022-08-25T20:47:36.216Z,23.36
2022-08-25T20:50:06.936Z,23.30
2022-08-25T20:52:34.646Z,23.57
2022-08-25T20:55:01.492Z,23.52
2022-08-25T20:57:28.112Z,23.73
2022-08-25T20:59:56.014Z,23.48
2022-08-25T21:02:24.403Z,23.59
2022-08-25T21:04:52.634Z,23.62
2022-08-25T21:07:19.857Z,23.76
2022-08-25T21:09:47.842Z,23.77
2022-08-25T21:12:15.666Z,23.51
2022-08-25T21:14:42.440Z,23.83
2022-08-25T21:17:12.191Z,23.62
2022-08-25T21:19:40.031Z,23.59
2022-08-25T21:22:08.285Z,23.42
2022-08-25T21:24:34.896Z,23.56
2022-08-25T21:27:03.256Z,23.45
2022-08-25T21:29:32.607Z,23.15
2022-08-25T21:31:59.229Z,23.61
2022-08-25T21:34:28.925Z,23.54
2022-08-25T21:36:57.966Z,23.64
2022-08-25T21:39:28.028Z,23.36
2022-08-25T21:41:55.651Z,23.58
2022-08-25T21:44:22.260Z,23.51
2022-08-25T21:46:54.646Z,23.46
2022-08-25T21:49:22.160Z,23.55
2022-08-25T21:51:59.245Z,23.41
2022-08-25T21:54:27.257Z,23.41
2022-08-25T21:56:59.618Z,23.36
2022-08-25T21:59:29.801Z,23.52
2022-08-25T22:01:58.200Z,23.50
2022-08-25T22:04:25.736Z,23.47
2022-08-25T22:06:52.325Z,23.57
2022-08-25T22:09:19.088Z,23.33
2022-08-25T22:11:46.127Z,23.26
2022-08-25T22:14:14.570Z,23.41
2022-08-25T22:16:42.989Z,23.62
2022-08-25T22:19:11.812Z,23.53
2022-08-25T22:21:39.424Z,23.44
2022-08-25T22:24:06.391Z,23.29
2022-08-25T22:26:34.266Z,23.62
2022-08-25T22:29:01.902Z,23.62
2022-08-25T22:31:28.856Z,23.43
2022-08-25T22:33:57.755Z,23.41
2022-08-25T22:36:30.170Z,23.28
2022-08-25T22:38:57.281Z,23.52
2022-08-25T22:41:25.939Z,23.55
2022-08-25T22:43:55.422Z,23.61
2022-08-25T22:46:22.487Z,23.48
2022-08-25T22:48:50.289Z,23.35
2022-08-25T22:51:20.888Z,23.45
2022-08-25T22:53:49.110Z,23.08
2022-08-25T22:56:18.156Z,23.24
2022-08-25T22:58:52.078Z,23.41
2022-08-25T23:01:20.165Z,23.25
2022-08-25T23:03:47.563Z,23.17
2022-08-25T23:06:24.457Z,23.43
2022-08-25T23:08:53.786Z,23.19
2022-08-25T23:11:21.523Z,23.44
2022-08-25T23:13:48.033Z,23.22
2022-08-25T23:16:15.361Z,23.54
2022-08-25T23:18:43.977Z,23.24
2022-08-25T23:21:37.922Z,23.19
2022-08-25T23:24:08.297Z,23.01
2022-08-25T23:26:34.842Z,23.36
2022-08-25T23:29:03.255Z,23.06
2022-08-25T23:31:44.199Z,22.92
2022-08-25T23:34:10.935Z,22.76
2022-08-25T23:36:38.091Z,23.11
2022-08-25T23:39:05.007Z,23.15
2022-08-25T23:41:34.224Z,23.24
2022-08-25T23:44:05.371Z,23.05
2022-08-25T23:46:35.005Z,22.72
2022-08-25T23:49:03.048Z,22.77
2022-08-25T23:51:34.010Z,22.96
2022-08-25T23:54:05.956Z,22.60
2022-08-25T23:56:34.155Z,22.82
2022-08-25T23:59:03.243Z,22.82
